createdAt,value
2022-10-14T00:06:45.976Z,20.90
2022-10-14T00:09:37.881Z,20.90
2022-10-14T00:12:50.463Z,20.90
2022-10-14T00:28:18.450Z,21.10
2022-10-14T00:30:59.953Z,21.00
2022-10-14T00:33:52.045Z,21.00
2022-10-14T00:36:25.516Z,21.00
2022-10-14T00:38:57.855Z,21.10
2022-10-14T00:41:31.995Z,21.10
2022-10-14T00:44:33.573Z,21.10
2022-10-14T00:47:05.657Z,21.10
2022-10-14T00:50:23.519Z,21.20
2022-10-14T00:52:55.247Z,21.10
2022-10-14T00:55:46.923Z,21.20
2022-10-14T01:22:57.683Z,21.10
2022-10-14T01:25:47.210Z,21.10
2022-10-14T01:28:46.482Z,21.10
2022-10-14T01:32:01.722Z,21.10
2022-10-14T01:35:02.109Z,21.20
2022-10-14T01:37:36.766Z,21.20
2022-10-14T01:40:43.953Z,21.20
2022-10-14T01:53:29.917Z,21.20
2022-10-14T01:56:02.466Z,21.20
2022-10-14T01:59:06.725Z,21.30
2022-10-14T02:01:38.209Z,21.30
2022-10-14T02:04:38.188Z,21.30
2022-10-14T02:07:38.357Z,21.30
2022-10-14T02:10:27.643Z,21.30
2022-10-14T02:13:02.309Z,21.40
2022-10-14T02:16:09.948Z,21.40
2022-10-14T02:22:02.239Z,21.40
2022-10-14T02:45:56.437Z,21.50
2022-10-14T02:49:20.919Z,21.50
2022-10-14T03:06:36.794Z,21.60
2022-10-14T03:09:08.080Z,21.60
2022-10-14T03:11:42.557Z,21.60
2022-10-14T03:14:57.843Z,21.60
2022-10-14T03:41:12.404Z,21.70
2022-10-14T03:44:32.159Z,21.70
2022-10-14T03:48:09.590Z,21.70
2022-10-14T03:50:44.409Z,21.70
2022-10-14T04:07:57.823Z,21.80
2022-10-14T04:10:49.841Z,21.70
2022-10-14T04:13:20.843Z,21.70
2022-10-14T04:16:32.297Z,21.80
2022-10-14T04:19:07.189Z,21.80
2022-10-14T04:21:58.279Z,21.80
2022-10-14T04:25:00.925Z,21.80
2022-10-14T04:45:55.870Z,21.80
2022-10-14T04:48:52.644Z,21.80
2022-10-14T04:52:25.246Z,21.80
2022-10-14T04:55:22.690Z,21.80
2022-10-14T04:57:55.469Z,21.80
2022-10-14T05:10:07.334Z,21.90
2022-10-14T05:13:24.665Z,21.90
2022-10-14T05:16:45.371Z,21.90
2022-10-14T05:41:21.498Z,21.90
2022-10-14T05:44:56.709Z,21.90
2022-10-14T05:47:58.408Z,21.90
2022-10-14T05:50:51.470Z,21.90
2022-10-14T06:02:05.202Z,21.90
2022-10-14T06:05:30.249Z,22.00
2022-10-14T06:08:01.588Z,22.00
2022-10-14T06:10:55.970Z,22.00
2022-10-14T06:13:26.775Z,22.00
2022-10-14T06:26:42.026Z,22.00
2022-10-14T06:30:04.888Z,22.00
2022-10-14T06:32:56.872Z,22.00
2022-10-14T06:35:29.122Z,22.00
2022-10-14T06:48:25.594Z,22.10
2022-10-14T06:50:56.576Z,22.10
2022-10-14T07:06:13.030Z,22.20
2022-10-14T07:09:55.506Z,22.20
2022-10-14T07:12:52.355Z,22.20
2022-10-14T07:15:50.911Z,22.20
2022-10-14T07:18:23.318Z,22.20
2022-10-14T07:27:12.319Z,22.30
2022-10-14T07:30:10.667Z,22.30
2022-10-14T07:32:44.964Z,22.30
2022-10-14T07:35:38.971Z,22.20
2022-10-14T07:38:36.629Z,22.30
2022-10-14T07:41:17.697Z,22.30
2022-10-14T07:44:07.035Z,22.20
2022-10-14T08:16:23.361Z,22.20
2022-10-14T08:18:56.692Z,22.30
2022-10-14T08:21:28.621Z,22.30
2022-10-14T08:24:00.466Z,22.30
2022-10-14T08:27:24.480Z,22.30
2022-10-14T08:29:56.366Z,22.30
2022-10-14T08:32:51.226Z,22.30
2022-10-14T08:50:52.654Z,22.30
2022-10-14T08:54:12.687Z,22.40
2022-10-14T08:57:30.107Z,22.30
2022-10-14T09:00:24.907Z,22.30
2022-10-14T09:06:02.934Z,22.30
2022-10-14T09:08:41.314Z,22.30
2022-10-14T09:23:44.664Z,22.40
2022-10-14T09:27:04.973Z,22.50
2022-10-14T09:33:20.757Z,22.50
2022-10-14T09:35:53.545Z,22.50
2022-10-14T09:38:25.767Z,22.50
2022-10-14T09:41:02.559Z,22.50
2022-10-14T09:53:21.612Z,22.40
2022-10-14T09:56:42.196Z,22.40
2022-10-14T09:59:58.840Z,22.40
2022-10-14T10:12:48.466Z,22.30
2022-10-14T10:16:31.814Z,22.30
2022-10-14T10:19:22.734Z,22.30
2022-10-14T10:21:53.661Z,22.30
2022-10-14T10:43:15.456Z,22.30
2022-10-14T10:46:12.966Z,22.20
2022-10-14T10:49:15.172Z,22.20
2022-10-14T10:52:24.356Z,22.20
2022-10-14T10:55:21.737Z,22.20
2022-10-14T10:58:27.811Z,22.20
2022-10-14T11:01:52.091Z,22.30
2022-10-14T11:04:44.120Z,22.20
2022-10-14T11:07:44.903Z,22.20
2022-10-14T11:10:44.246Z,22.20
2022-10-14T11:13:53.255Z,22.20
2022-10-14T11:16:45.970Z,22.20
2022-10-14T11:19:39.343Z,22.20
2022-10-14T11:22:40.173Z,22.20
2022-10-14T11:25:34.253Z,22.20
2022-10-14T11:28:30.211Z,22.20
2022-10-14T11:31:34.518Z,22.20
2022-10-14T11:34:26.711Z,22.20
2022-10-14T11:37:28.386Z,22.20
2022-10-14T11:40:25.321Z,22.20
2022-10-14T11:43:03.257Z,22.30
2022-10-14T11:46:03.579Z,22.30
2022-10-14T11:48:47.607Z,22.20
2022-10-14T11:51:34.808Z,22.30
2022-10-14T11:54:21.069Z,22.30
2022-10-14T11:57:00.870Z,22.30
2022-10-14T12:00:20.572Z,22.20
2022-10-14T12:03:14.621Z,22.20
2022-10-14T12:06:06.440Z,22.20
2022-10-14T12:09:01.906Z,22.20
2022-10-14T12:11:44.830Z,22.10
2022-10-14T12:14:25.903Z,22.20
2022-10-14T12:17:01.132Z,22.10
2022-10-14T12:19:33.873Z,22.20
2022-10-14T12:22:25.387Z,22.20
2022-10-14T12:25:01.010Z,22.20
2022-10-14T12:27:33.413Z,22.20
2022-10-14T12:30:05.321Z,22.20
2022-10-14T12:32:36.665Z,22.20
2022-10-14T12:35:46.892Z,22.10
2022-10-14T12:38:23.149Z,22.10
2022-10-14T12:40:54.708Z,22.10
2022-10-14T12:43:31.356Z,22.10
2022-10-14T12:46:17.192Z,22.10
2022-10-14T12:48:52.386Z,22.10
2022-10-14T12:51:29.056Z,22.10
2022-10-14T12:54:30.226Z,22.10
2022-10-14T12:57:04.502Z,22.10
2022-10-14T12:59:41.167Z,22.10
2022-10-14T13:02:33.915Z,22.10
2022-10-14T13:05:23.909Z,22.10
2022-10-14T13:08:18.864Z,22.10
2022-10-14T13:11:03.948Z,22.00
2022-10-14T13:13:49.364Z,22.00
2022-10-14T13:16:55.103Z,22.00
2022-10-14T13:19:38.901Z,22.00
2022-10-14T13:22:33.435Z,22.00
2022-10-14T13:25:21.237Z,22.00
2022-10-14T13:28:06.341Z,22.00
2022-10-14T13:30:52.071Z,22.00
2022-10-14T13:33:51.832Z,22.00
2022-10-14T13:36:57.342Z,22.00
2022-10-14T13:39:54.829Z,22.00
2022-10-14T13:42:36.883Z,22.00
2022-10-14T13:45:16.589Z,22.00
2022-10-14T13:47:51.319Z,22.00
2022-10-14T13:50:29.020Z,21.90
2022-10-14T13:53:10.544Z,21.90
2022-10-14T13:55:54.066Z,21.90
2022-10-14T13:58:26.892Z,21.90
2022-10-14T14:01:07.982Z,21.90
2022-10-14T14:03:47.771Z,21.90
2022-10-14T14:07:35.200Z,21.90
2022-10-14T14:10:03.873Z,21.90
2022-10-14T14:12:56.916Z,21.90
2022-10-14T14:15:31.087Z,21.90
2022-10-14T14:18:02.280Z,21.90
2022-10-14T14:23:20.199Z,21.90
2022-10-14T14:26:17.810Z,21.90
2022-10-14T14:28:47.286Z,21.90
2022-10-14T14:31:21.679Z,21.90
2022-10-14T14:33:53.343Z,21.80
2022-10-14T14:36:27.839Z,21.90
2022-10-14T14:39:24.994Z,21.90
2022-10-14T14:45:22.302Z,21.80
2022-10-14T14:48:07.031Z,21.80
2022-10-14T14:50:44.557Z,21.80
2022-10-14T14:53:31.574Z,21.80
2022-10-14T14:56:11.827Z,21.80
2022-10-14T14:58:54.288Z,21.80
2022-10-14T15:01:35.523Z,21.80
2022-10-14T15:04:12.370Z,21.80
2022-10-14T15:06:59.678Z,21.80
2022-10-14T15:09:48.774Z,21.80
2022-10-14T15:12:22.878Z,21.80
2022-10-14T15:15:00.630Z,21.80
2022-10-14T15:17:47.610Z,21.80
2022-10-14T15:20:54.023Z,21.80
2022-10-14T15:24:00.147Z,21.80
2022-10-14T15:26:52.555Z,21.80
2022-10-14T15:29:44.290Z,21.80
2022-10-14T15:32:17.903Z,21.80
2022-10-14T15:35:09.169Z,21.70
2022-10-14T15:37:40.629Z,21.80
2022-10-14T15:40:21.771Z,21.80
2022-10-14T15:42:52.983Z,21.80
2022-10-14T15:45:24.394Z,21.70
2022-10-14T15:48:03.551Z,21.70
2022-10-14T15:50:35.260Z,21.70
2022-10-14T15:53:06.518Z,21.70
2022-10-14T15:55:37.933Z,21.70
2022-10-14T15:58:09.896Z,21.70
2022-10-14T16:00:41.166Z,21.70
2022-10-14T16:03:13.158Z,21.70
2022-10-14T16:05:44.465Z,21.70
2022-10-14T16:08:17.912Z,21.70
2022-10-14T16:10:50.245Z,21.70
2022-10-14T16:13:21.684Z,21.60
2022-10-14T16:16:00.960Z,21.60
2022-10-14T16:18:32.293Z,21.60
2022-10-14T16:21:04.423Z,21.70
2022-10-14T16:23:38.844Z,21.60
2022-10-14T16:26:10.274Z,21.70
2022-10-14T16:28:41.696Z,21.60
2022-10-14T16:31:16.640Z,21.60
2022-10-14T16:33:47.955Z,21.60
2022-10-14T16:36:20.571Z,21.60
2022-10-14T16:39:02.412Z,21.60
2022-10-14T16:41:35.274Z,21.60
2022-10-14T16:44:07.864Z,21.60
2022-10-14T16:46:56.858Z,21.60
2022-10-14T16:49:28.142Z,21.60
2022-10-14T16:51:59.265Z,21.60
2022-10-14T16:54:31.388Z,21.60
2022-10-14T16:57:02.377Z,21.60
2022-10-14T16:59:34.840Z,21.50
2022-10-14T17:02:06.585Z,21.50
2022-10-14T17:04:37.819Z,21.60
2022-10-14T17:07:10.197Z,21.60
2022-10-14T17:09:41.515Z,21.50
2022-10-14T17:12:14.023Z,21.50
2022-10-14T17:15:06.244Z,21.50
2022-10-14T17:17:37.585Z,21.50
2022-10-14T17:20:10.733Z,21.50
2022-10-14T17:22:42.462Z,21.50
2022-10-14T17:25:13.764Z,21.50
2022-10-14T17:27:44.792Z,21.50
2022-10-14T17:30:15.786Z,21.50
2022-10-14T17:32:47.333Z,21.50
2022-10-14T17:35:18.384Z,21.50
2022-10-14T17:37:50.473Z,21.50
2022-10-14T17:40:21.473Z,21.50
2022-10-14T17:42:52.338Z,21.50
2022-10-14T17:45:23.222Z,21.50
2022-10-14T17:47:56.846Z,21.50
2022-10-14T17:50:29.290Z,21.40
2022-10-14T17:53:00.826Z,21.50
2022-10-14T17:55:36.335Z,21.40
2022-10-14T17:58:27.142Z,21.50
2022-10-14T18:01:08.627Z,21.50
2022-10-14T18:03:44.212Z,21.40
2022-10-14T18:06:17.927Z,21.50
2022-10-14T18:08:56.392Z,21.50
2022-10-14T18:12:07.663Z,21.40
2022-10-14T18:14:41.873Z,21.50
2022-10-14T18:17:14.257Z,21.40
2022-10-14T18:19:49.767Z,21.40
2022-10-14T18:22:22.976Z,21.40
2022-10-14T18:24:54.378Z,21.40
2022-10-14T18:27:28.925Z,21.40
2022-10-14T18:29:59.952Z,21.40
2022-10-14T18:32:31.020Z,21.40
2022-10-14T18:35:02.150Z,21.40
2022-10-14T18:37:33.958Z,21.40
2022-10-14T18:40:05.230Z,21.40
2022-10-14T18:42:36.350Z,21.40
2022-10-14T18:45:08.691Z,21.40
2022-10-14T18:47:40.396Z,21.40
2022-10-14T18:50:11.472Z,21.40
2022-10-14T18:52:42.717Z,21.30
2022-10-14T18:55:13.689Z,21.40
2022-10-14T18:57:44.783Z,21.40
2022-10-14T19:00:16.810Z,21.30
2022-10-14T19:02:47.861Z,21.30
2022-10-14T19:05:19.221Z,21.30
2022-10-14T19:07:51.402Z,21.30
2022-10-14T19:10:22.563Z,21.30
2022-10-14T19:12:53.606Z,21.30
2022-10-14T19:15:28.211Z,21.40
2022-10-14T19:18:00.299Z,21.30
2022-10-14T19:20:33.830Z,21.30
2022-10-14T19:23:06.080Z,21.30
2022-10-14T19:25:38.791Z,21.30
2022-10-14T19:28:11.077Z,21.30
2022-10-14T19:30:42.286Z,21.30
2022-10-14T19:33:13.275Z,21.30
2022-10-14T19:35:44.269Z,21.30
2022-10-14T19:38:16.397Z,21.30
2022-10-14T19:40:47.322Z,21.30
2022-10-14T19:43:18.383Z,21.30
2022-10-14T19:45:50.369Z,21.30
2022-10-14T19:48:21.650Z,21.30
2022-10-14T19:50:52.709Z,21.30
2022-10-14T19:53:23.934Z,21.30
2022-10-14T19:55:54.906Z,21.30
2022-10-14T19:58:26.049Z,21.20
2022-10-14T20:00:57.235Z,21.20
2022-10-14T20:03:28.235Z,21.20
2022-10-14T20:06:03.314Z,21.20
2022-10-14T20:08:55.665Z,21.20
2022-10-14T20:11:26.760Z,21.20
2022-10-14T20:13:57.829Z,21.20
2022-10-14T20:16:29.327Z,21.20
2022-10-14T20:19:00.413Z,21.20
2022-10-14T20:21:32.204Z,21.20
2022-10-14T20:24:03.041Z,21.20
2022-10-14T20:26:34.262Z,21.20
2022-10-14T20:29:05.741Z,21.20
2022-10-14T20:31:36.637Z,21.20
2022-10-14T20:34:10.460Z,21.20
2022-10-14T20:36:42.409Z,21.20
2022-10-14T20:39:13.638Z,21.20
2022-10-14T20:41:44.943Z,21.20
2022-10-14T20:44:19.203Z,21.20
2022-10-14T20:46:54.117Z,21.10
2022-10-14T20:49:44.932Z,21.10
2022-10-14T20:52:16.177Z,21.20
2022-10-14T20:54:47.029Z,21.20
2022-10-14T20:57:17.847Z,21.20
2022-10-14T20:59:48.651Z,21.20
2022-10-14T21:02:24.642Z,21.10
2022-10-14T21:04:55.801Z,21.10
2022-10-14T21:07:28.115Z,21.10
2022-10-14T21:09:59.207Z,21.10
2022-10-14T21:12:30.058Z,21.10
2022-10-14T21:15:01.152Z,21.10
2022-10-14T21:17:51.721Z,21.10
2022-10-14T21:20:22.503Z,21.10
2022-10-14T21:22:53.312Z,21.10
2022-10-14T21:25:24.274Z,21.10
2022-10-14T21:27:55.186Z,21.10
2022-10-14T21:30:26.270Z,21.10
2022-10-14T21:32:57.723Z,21.10
2022-10-14T21:35:28.760Z,21.10
2022-10-14T21:37:59.854Z,21.10
2022-10-14T21:40:32.305Z,21.10
2022-10-14T21:43:03.584Z,21.10
2022-10-14T21:45:35.553Z,21.10
2022-10-14T21:48:06.807Z,21.10
2022-10-14T21:50:37.919Z,21.00
2022-10-14T21:53:11.381Z,21.00
2022-10-14T21:55:44.951Z,21.10
2022-10-14T21:58:16.086Z,21.00
2022-10-14T22:00:47.256Z,21.00
2022-10-14T22:03:20.986Z,21.00
2022-10-14T22:05:58.353Z,21.00
2022-10-14T22:08:34.964Z,21.00
2022-10-14T22:11:29.096Z,21.00
2022-10-14T22:14:03.153Z,21.10
2022-10-14T22:16:34.487Z,21.00
2022-10-14T22:19:07.590Z,21.00
2022-10-14T22:21:40.075Z,21.00
2022-10-14T22:24:11.499Z,21.00
2022-10-14T22:26:42.733Z,21.00
2022-10-14T22:29:17.414Z,21.00
2022-10-14T22:31:49.119Z,21.00
2022-10-14T22:34:20.292Z,21.00
2022-10-14T22:36:51.325Z,21.00
2022-10-14T22:39:22.207Z,21.00
2022-10-14T22:41:53.127Z,20.90
2022-10-14T22:44:24.074Z,20.90
2022-10-14T22:46:56.027Z,20.90
2022-10-14T22:49:26.985Z,21.00
2022-10-14T22:52:03.330Z,20.90
2022-10-14T22:54:34.607Z,20.90
2022-10-14T22:57:05.602Z,20.90
2022-10-14T22:59:36.772Z,20.90
2022-10-14T23:02:07.763Z,20.90
2022-10-14T23:04:38.806Z,20.90
2022-10-14T23:07:10.026Z,20.90
2022-10-14T23:09:40.948Z,20.90
2022-10-14T23:12:12.068Z,20.90
2022-10-14T23:14:42.993Z,20.90
2022-10-14T23:17:14.100Z,20.90
2022-10-14T23:19:44.981Z,20.90
2022-10-14T23:22:16.052Z,20.90
2022-10-14T23:24:47.004Z,20.90
2022-10-14T23:27:22.280Z,20.90
2022-10-14T23:29:53.126Z,20.90
2022-10-14T23:32:23.943Z,20.90
2022-10-14T23:34:54.895Z,20.90
2022-10-14T23:37:26.055Z,20.90
2022-10-14T23:39:57.141Z,20.90
2022-10-14T23:42:28.168Z,21.00
2022-10-14T23:44:59.101Z,21.00
2022-10-14T23:47:30.104Z,21.00
2022-10-14T23:50:01.176Z,21.00
2022-10-14T23:52:32.304Z,21.00
2022-10-14T23:55:03.469Z,21.00
2022-10-14T23:57:34.417Z,21.00
